MSC Suez — HPMS — position and weather

sailwx.info

Track history (hours):
 
Tides and Currents Weather Stations Pressure Air Temp Water Temp Dewpoint Dewpoint Depression Visibility Wind Speed Wind Dir Waves Ship Positions

MSC Suez

Last reported at 2016-Jul-30 20:33 UTC. Time now 2016-Jul-30 20:48 UTC.
Position N 51°58' E 001°18'.

Length 237 m; draft 9.3 m.

Type: Ship. MMSI: 355289000.

Date/timePositionNaut miles runAvg speedWind from/ knotsBaromVisibWave heightAir tempDewpointWater temp
2016-Jul-30 20:33N 51°58' E 001°18'0 0.0
2016-Jul-30 19:33N 51°58' E 001°18'0 0.0
2016-Jul-30 18:33N 51°58' E 001°18'0 0.0
2016-Jul-30 17:33N 51°58' E 001°18'0 0.0
2016-Jul-30 16:33N 51°58' E 001°18'0 0.0
2016-Jul-30 15:33N 51°58' E 001°18'0 0.0
2016-Jul-30 14:33N 51°58' E 001°18'0 0.0
2016-Jul-30 13:33N 51°58' E 001°18'0 0.0
2016-Jul-30 12:33N 51°58' E 001°18'0 0.2
2016-Jul-30 11:34N 51°57' E 001°18'8 7.9
2016-Jul-30 10:34N 51°56' E 001°31'7 7.0
2016-Jul-30 09:33N 51°52' E 001°39'1 1.2
2016-Jul-30 08:32N 51°53' E 001°39'0 0.1
2016-Jul-30 07:32N 51°53' E 001°39'0 0.0
2016-Jul-30 06:32N 51°53' E 001°39'0 0.0
2016-Jul-30 05:32N 51°53' E 001°39'0 0.0
2016-Jul-30 04:32N 51°53' E 001°39'0 0.1
2016-Jul-30 03:33N 51°53' E 001°39'7 7.2
2016-Jul-30 02:34N 51°48' E 001°48'1211.9
2016-Jul-30 01:34N 51°37' E 001°51'1111.4
2016-Jul-30 00:33N 51°26' E 001°59'1111.2
2016-Jul-29 23:34N 51°21' E 002°15'10 9.8
2016-Jul-29 22:33N 51°23' E 002°31'10 9.9
2016-Jul-29 21:33N 51°22' E 002°46'1312.8
2016-Jul-29 20:34N 51°24' E 003°06'1514.5
2016-Jul-29 19:34N 51°25' E 003°30'9 9.0
2016-Jul-29 18:33N 51°23' E 003°43'1110.7
2016-Jul-29 17:33N 51°26' E 003°60'1010.2
2016-Jul-29 16:34N 51°21' E 004°14'2 2.2
2016-Jul-29 15:33N 51°21' E 004°17'0 0.3
2016-Jul-29 14:33N 51°21' E 004°18'2 1.7
2016-Jul-29 13:32N 51°19' E 004°20'0 0.0
2016-Jul-29 12:32N 51°19' E 004°20'0 0.0
2016-Jul-29 11:29N 51°19' E 004°20'0 0.0
2016-Jul-29 10:32N 51°20' E 004°20'0 0.0
2016-Jul-29 09:32N 51°20' E 004°20'0 0.0
2016-Jul-29 08:32N 51°19' E 004°20'0 0.0
2016-Jul-29 07:32N 51°19' E 004°20'0 0.0
2016-Jul-29 06:29N 51°20' E 004°20'0 0.0
2016-Jul-29 05:29N 51°20' E 004°20'0 0.0
2016-Jul-29 04:26N 51°19' E 004°20'0 0.0
2016-Jul-29 03:32N 51°20' E 004°20'0 0.0
2016-Jul-29 02:32N 51°19' E 004°20'0 0.0
2016-Jul-29 01:32N 51°19' E 004°20'0 0.0
2016-Jul-29 00:32N 51°19' E 004°20'0 0.0
2016-Jul-28 23:32N 51°19' E 004°20'0 0.0
2016-Jul-28 22:29N 51°19' E 004°20'0 0.0
2016-Jul-28 21:32N 51°19' E 004°20'0 0.0
2016-Jul-28 20:32N 51°19' E 004°20'0 0.0
2016-Jul-28 19:32N 51°19' E 004°20'1 1.3
2016-Jul-28 18:33N 51°20' E 004°18'1 0.9
2016-Jul-28 17:33N 51°21' E 004°17'2 2.1
2016-Jul-28 16:33N 51°19' E 004°16'1 0.7
2016-Jul-28 15:30N 51°18' E 004°16'0 0.0
2016-Jul-28 14:33N 51°18' E 004°16'0 0.0
2016-Jul-28 13:33N 51°18' E 004°16'0 0.0
2016-Jul-28 12:30N 51°18' E 004°16'0 0.0
2016-Jul-28 11:33N 51°18' E 004°16'0 0.0
2016-Jul-28 10:33N 51°18' E 004°16'0 0.0
2016-Jul-28 09:33N 51°18' E 004°16'0 0.0
2016-Jul-28 08:33N 51°18' E 004°16'0 0.0
2016-Jul-28 07:33N 51°18' E 004°16'0 0.0
2016-Jul-28 06:33N 51°18' E 004°16'0 0.0
2016-Jul-28 05:33N 51°18' E 004°16'2 1.7
2016-Jul-28 04:33N 51°20' E 004°16'7 6.5
2016-Jul-28 03:33N 51°22' E 004°07'7 6.6
2016-Jul-28 02:33N 51°23' E 003°56'9 9.0
2016-Jul-28 01:33N 51°25' E 003°42'1111.4
2016-Jul-28 00:34N 51°25' E 003°24'1414.4
2016-Jul-27 23:34N 51°25' E 003°01'1414.3
2016-Jul-27 22:33N 51°38' E 003°10'1413.5
2016-Jul-27 21:33N 51°51' E 003°18'1716.0
2016-Jul-27 20:31N 52°07' E 003°22'1716.0
2016-Jul-27 19:26N 52°24' E 003°29'2015.4
2016-Jul-27 18:08N 52°43' E 003°38'3217.2
2016-Jul-27 16:16N 53°06' E 004°16'6316.2
2016-Jul-27 12:23N 54°03' E 004°57'1214.4
2016-Jul-27 11:34N 54°14' E 005°05'3415.3
2016-Jul-27 09:21N 54°45' E 005°31'7418.5
2016-Jul-27 05:22N 55°48' E 006°39'16417.7
2016-Jul-26 20:04N 57°46' E 010°07'917.8
2016-Jul-26 19:33N 57°48' E 010°23'1616.2
2016-Jul-26 18:33N 57°45' E 010°53'1918.8
2016-Jul-26 17:34N 57°32' E 011°19'1919.0
2016-Jul-26 16:33N 57°15' E 011°35'2019.9
2016-Jul-26 15:33N 56°56' E 011°47'1717.4
2016-Jul-26 14:33N 56°39' E 011°47'5819.5
2016-Jul-26 11:33N 55°49' E 010°50'3618.1
2016-Jul-26 09:34N 55°15' E 011°06'1515.3
2016-Jul-26 08:34N 54°60' E 010°59'1717.1
2016-Jul-26 07:33N 54°44' E 010°47'1616.5
2016-Jul-26 06:34N 54°36' E 011°11'1919.3
2016-Jul-26 05:33N 54°28' E 011°42'1817.6
2016-Jul-26 04:33N 54°28' E 012°12'1717.5
2016-Jul-26 03:34N 54°42' E 012°30'1818.2
2016-Jul-26 02:34N 54°50' E 012°58'1919.3
2016-Jul-26 01:34N 54°56' E 013°30'1919.2
2016-Jul-26 00:34N 55°03' E 014°01'1918.8
2016-Jul-25 23:33N 55°18' E 014°22'1919.1
2016-Jul-25 22:34N 55°30' E 014°47'1919.4
2016-Jul-25 21:34N 55°40' E 015°17'1919.3
2016-Jul-25 20:33N 55°49' E 015°47'2119.4
2016-Jul-25 19:28N 56°00' E 016°20'2119.3
2016-Jul-25 18:23N 56°11' E 016°51'  
2016-Jul-23 07:33N 59°20' E 022°05'1212.1
2016-Jul-23 06:33N 59°28' E 022°24'2813.9
2016-Jul-23 04:32N 59°37' E 023°16'1111.2
2016-Jul-23 03:33N 59°40' E 023°37'1111.3
2016-Jul-23 02:33N 59°43' E 023°58'1211.4
2016-Jul-23 01:32N 59°46' E 024°20'1111.0
2016-Jul-23 00:33N 59°49' E 024°41'1111.2
2016-Jul-22 23:33N 59°51' E 025°03'1311.2
2016-Jul-22 22:23N 59°53' E 025°29'911.3
2016-Jul-22 21:33N 59°55' E 025°47'1211.5
2016-Jul-22 20:33N 59°58' E 026°09'1111.3
2016-Jul-22 19:33N 60°01' E 026°31'1111.0
2016-Jul-22 18:33N 60°00' E 026°53'1110.7
2016-Jul-22 17:33N 60°03' E 027°14'1211.6
2016-Jul-22 16:32N 60°09' E 027°34'1010.7
2016-Jul-22 15:33N 60°11' E 027°55'1111.2
2016-Jul-22 14:33N 60°08' E 028°16'1110.8
2016-Jul-22 13:33N 60°03' E 028°36'1111.2
2016-Jul-22 12:33N 60°03' E 028°58'1111.4
2016-Jul-22 11:33N 60°02' E 029°21'1010.1
2016-Jul-22 10:33N 59°60' E 029°40'1110.5
2016-Jul-22 09:33N 59°55' E 029°60'7 6.6
2016-Jul-22 08:31N 59°53' E 030°12'0 0.1
2016-Jul-22 07:31N 59°52' E 030°12'0 0.0
2016-Jul-22 04:31N 59°52' E 030°12'0 0.0
2016-Jul-22 03:31N 59°52' E 030°12'0 0.0
2016-Jul-22 02:31N 59°52' E 030°12'0 0.0
2016-Jul-22 01:31N 59°52' E 030°12'0 0.0
2016-Jul-22 00:31N 59°52' E 030°12'0 0.0
2016-Jul-21 23:31N 59°52' E 030°12'0 0.0
2016-Jul-21 22:31N 59°52' E 030°12'0 0.0
2016-Jul-21 21:31N 59°52' E 030°12'0 0.0
2016-Jul-21 20:31N 59°52' E 030°12'0 0.0
2016-Jul-21 19:31N 59°52' E 030°12'0 0.0
2016-Jul-21 18:31N 59°52' E 030°12'0 0.0
2016-Jul-21 17:31N 59°52' E 030°12'0 0.0
2016-Jul-21 16:31N 59°52' E 030°12'0 0.0
2016-Jul-21 15:31N 59°52' E 030°12'0 0.0
2016-Jul-21 14:31N 59°52' E 030°12'0 0.0
2016-Jul-21 13:31N 59°52' E 030°12'0 0.0
2016-Jul-21 12:31N 59°52' E 030°12'0 0.0
2016-Jul-21 11:31N 59°52' E 030°12'0 0.0
2016-Jul-21 10:31N 59°52' E 030°12'0 0.0
2016-Jul-21 09:31N 59°52' E 030°12'0 0.0
2016-Jul-21 08:31N 59°52' E 030°12'0 0.0
2016-Jul-21 07:31N 59°52' E 030°12'0 0.0
2016-Jul-21 06:31N 59°52' E 030°12'0 0.0
2016-Jul-21 05:31N 59°52' E 030°12'0 0.0
2016-Jul-21 04:28N 59°52' E 030°12'0 0.0
2016-Jul-21 03:31N 59°52' E 030°12'0 0.0
2016-Jul-21 02:31N 59°52' E 030°12'0 0.0
2016-Jul-21 01:31N 59°52' E 030°12'0 0.0
2016-Jul-21 00:31N 59°52' E 030°12'0 0.0
2016-Jul-20 23:31N 59°52' E 030°12'0 0.0
2016-Jul-20 22:28N 59°52' E 030°12'0 0.0
2016-Jul-20 21:31N 59°52' E 030°12'  
Track history (hours):
 
Tides and Currents Weather Stations Pressure Air Temp Water Temp Dewpoint Dewpoint Depression Visibility Wind Speed Wind Dir Waves Ship Positions

MSC Suez

Last reported at 2016-Jul-30 20:33 UTC. Time now 2016-Jul-30 20:48 UTC.
Position N 51°58' E 001°18'.

Length 237 m; draft 9.3 m.

Type: Ship. MMSI: 355289000.

Date/timePositionNaut miles runAvg speedWind from/ knotsBaromVisibWave heightAir tempDewpointWater temp
2016-Jul-30 20:33N 51°58' E 001°18'0 0.0
2016-Jul-30 19:33N 51°58' E 001°18'0 0.0
2016-Jul-30 18:33N 51°58' E 001°18'0 0.0
2016-Jul-30 17:33N 51°58' E 001°18'0 0.0
2016-Jul-30 16:33N 51°58' E 001°18'0 0.0
2016-Jul-30 15:33N 51°58' E 001°18'0 0.0
2016-Jul-30 14:33N 51°58' E 001°18'0 0.0
2016-Jul-30 13:33N 51°58' E 001°18'0 0.0
2016-Jul-30 12:33N 51°58' E 001°18'0 0.2
2016-Jul-30 11:34N 51°57' E 001°18'8 7.9
2016-Jul-30 10:34N 51°56' E 001°31'7 7.0
2016-Jul-30 09:33N 51°52' E 001°39'1 1.2
2016-Jul-30 08:32N 51°53' E 001°39'0 0.1
2016-Jul-30 07:32N 51°53' E 001°39'0 0.0
2016-Jul-30 06:32N 51°53' E 001°39'0 0.0
2016-Jul-30 05:32N 51°53' E 001°39'0 0.0
2016-Jul-30 04:32N 51°53' E 001°39'0 0.1
2016-Jul-30 03:33N 51°53' E 001°39'7 7.2
2016-Jul-30 02:34N 51°48' E 001°48'1211.9
2016-Jul-30 01:34N 51°37' E 001°51'1111.4
2016-Jul-30 00:33N 51°26' E 001°59'1111.2
2016-Jul-29 23:34N 51°21' E 002°15'10 9.8
2016-Jul-29 22:33N 51°23' E 002°31'10 9.9
2016-Jul-29 21:33N 51°22' E 002°46'1312.8
2016-Jul-29 20:34N 51°24' E 003°06'1514.5
2016-Jul-29 19:34N 51°25' E 003°30'9 9.0
2016-Jul-29 18:33N 51°23' E 003°43'1110.7
2016-Jul-29 17:33N 51°26' E 003°60'1010.2
2016-Jul-29 16:34N 51°21' E 004°14'2 2.2
2016-Jul-29 15:33N 51°21' E 004°17'0 0.3
2016-Jul-29 14:33N 51°21' E 004°18'2 1.7
2016-Jul-29 13:32N 51°19' E 004°20'0 0.0
2016-Jul-29 12:32N 51°19' E 004°20'0 0.0
2016-Jul-29 11:29N 51°19' E 004°20'0 0.0
2016-Jul-29 10:32N 51°20' E 004°20'0 0.0
2016-Jul-29 09:32N 51°20' E 004°20'0 0.0
2016-Jul-29 08:32N 51°19' E 004°20'0 0.0
2016-Jul-29 07:32N 51°19' E 004°20'0 0.0
2016-Jul-29 06:29N 51°20' E 004°20'0 0.0
2016-Jul-29 05:29N 51°20' E 004°20'0 0.0
2016-Jul-29 04:26N 51°19' E 004°20'0 0.0
2016-Jul-29 03:32N 51°20' E 004°20'0 0.0
2016-Jul-29 02:32N 51°19' E 004°20'0 0.0
2016-Jul-29 01:32N 51°19' E 004°20'0 0.0
2016-Jul-29 00:32N 51°19' E 004°20'0 0.0
2016-Jul-28 23:32N 51°19' E 004°20'0 0.0
2016-Jul-28 22:29N 51°19' E 004°20'0 0.0
2016-Jul-28 21:32N 51°19' E 004°20'0 0.0
2016-Jul-28 20:32N 51°19' E 004°20'0 0.0
2016-Jul-28 19:32N 51°19' E 004°20'1 1.3
2016-Jul-28 18:33N 51°20' E 004°18'1 0.9
2016-Jul-28 17:33N 51°21' E 004°17'2 2.1
2016-Jul-28 16:33N 51°19' E 004°16'1 0.7
2016-Jul-28 15:30N 51°18' E 004°16'0 0.0
2016-Jul-28 14:33N 51°18' E 004°16'0 0.0
2016-Jul-28 13:33N 51°18' E 004°16'0 0.0
2016-Jul-28 12:30N 51°18' E 004°16'0 0.0
2016-Jul-28 11:33N 51°18' E 004°16'0 0.0
2016-Jul-28 10:33N 51°18' E 004°16'0 0.0
2016-Jul-28 09:33N 51°18' E 004°16'0 0.0
2016-Jul-28 08:33N 51°18' E 004°16'0 0.0
2016-Jul-28 07:33N 51°18' E 004°16'0 0.0
2016-Jul-28 06:33N 51°18' E 004°16'0 0.0
2016-Jul-28 05:33N 51°18' E 004°16'2 1.7
2016-Jul-28 04:33N 51°20' E 004°16'7 6.5
2016-Jul-28 03:33N 51°22' E 004°07'7 6.6
2016-Jul-28 02:33N 51°23' E 003°56'9 9.0
2016-Jul-28 01:33N 51°25' E 003°42'1111.4
2016-Jul-28 00:34N 51°25' E 003°24'1414.4
2016-Jul-27 23:34N 51°25' E 003°01'1414.3
2016-Jul-27 22:33N 51°38' E 003°10'1413.5
2016-Jul-27 21:33N 51°51' E 003°18'1716.0
2016-Jul-27 20:31N 52°07' E 003°22'1716.0
2016-Jul-27 19:26N 52°24' E 003°29'2015.4
2016-Jul-27 18:08N 52°43' E 003°38'3217.2
2016-Jul-27 16:16N 53°06' E 004°16'6316.2
2016-Jul-27 12:23N 54°03' E 004°57'1214.4
2016-Jul-27 11:34N 54°14' E 005°05'3415.3
2016-Jul-27 09:21N 54°45' E 005°31'7418.5
2016-Jul-27 05:22N 55°48' E 006°39'16417.7
2016-Jul-26 20:04N 57°46' E 010°07'917.8
2016-Jul-26 19:33N 57°48' E 010°23'1616.2
2016-Jul-26 18:33N 57°45' E 010°53'1918.8
2016-Jul-26 17:34N 57°32' E 011°19'1919.0
2016-Jul-26 16:33N 57°15' E 011°35'2019.9
2016-Jul-26 15:33N 56°56' E 011°47'1717.4
2016-Jul-26 14:33N 56°39' E 011°47'5819.5
2016-Jul-26 11:33N 55°49' E 010°50'3618.1
2016-Jul-26 09:34N 55°15' E 011°06'1515.3
2016-Jul-26 08:34N 54°60' E 010°59'1717.1
2016-Jul-26 07:33N 54°44' E 010°47'1616.5
2016-Jul-26 06:34N 54°36' E 011°11'1919.3
2016-Jul-26 05:33N 54°28' E 011°42'1817.6
2016-Jul-26 04:33N 54°28' E 012°12'1717.5
2016-Jul-26 03:34N 54°42' E 012°30'1818.2
2016-Jul-26 02:34N 54°50' E 012°58'1919.3
2016-Jul-26 01:34N 54°56' E 013°30'1919.2
2016-Jul-26 00:34N 55°03' E 014°01'1918.8
2016-Jul-25 23:33N 55°18' E 014°22'1919.1
2016-Jul-25 22:34N 55°30' E 014°47'1919.4
2016-Jul-25 21:34N 55°40' E 015°17'1919.3
2016-Jul-25 20:33N 55°49' E 015°47'2119.4
2016-Jul-25 19:28N 56°00' E 016°20'2119.3
2016-Jul-25 18:23N 56°11' E 016°51'  
2016-Jul-23 07:33N 59°20' E 022°05'1212.1
2016-Jul-23 06:33N 59°28' E 022°24'2813.9
2016-Jul-23 04:32N 59°37' E 023°16'1111.2
2016-Jul-23 03:33N 59°40' E 023°37'1111.3
2016-Jul-23 02:33N 59°43' E 023°58'1211.4
2016-Jul-23 01:32N 59°46' E 024°20'1111.0
2016-Jul-23 00:33N 59°49' E 024°41'1111.2
2016-Jul-22 23:33N 59°51' E 025°03'1311.2
2016-Jul-22 22:23N 59°53' E 025°29'911.3
2016-Jul-22 21:33N 59°55' E 025°47'1211.5
2016-Jul-22 20:33N 59°58' E 026°09'1111.3
2016-Jul-22 19:33N 60°01' E 026°31'1111.0
2016-Jul-22 18:33N 60°00' E 026°53'1110.7
2016-Jul-22 17:33N 60°03' E 027°14'1211.6
2016-Jul-22 16:32N 60°09' E 027°34'1010.7
2016-Jul-22 15:33N 60°11' E 027°55'1111.2
2016-Jul-22 14:33N 60°08' E 028°16'1110.8
2016-Jul-22 13:33N 60°03' E 028°36'1111.2
2016-Jul-22 12:33N 60°03' E 028°58'1111.4
2016-Jul-22 11:33N 60°02' E 029°21'1010.1
2016-Jul-22 10:33N 59°60' E 029°40'1110.5
2016-Jul-22 09:33N 59°55' E 029°60'7 6.6
2016-Jul-22 08:31N 59°53' E 030°12'0 0.1
2016-Jul-22 07:31N 59°52' E 030°12'0 0.0
2016-Jul-22 04:31N 59°52' E 030°12'0 0.0
2016-Jul-22 03:31N 59°52' E 030°12'0 0.0
2016-Jul-22 02:31N 59°52' E 030°12'0 0.0
2016-Jul-22 01:31N 59°52' E 030°12'0 0.0
2016-Jul-22 00:31N 59°52' E 030°12'0 0.0
2016-Jul-21 23:31N 59°52' E 030°12'0 0.0
2016-Jul-21 22:31N 59°52' E 030°12'0 0.0
2016-Jul-21 21:31N 59°52' E 030°12'0 0.0
2016-Jul-21 20:31N 59°52' E 030°12'0 0.0
2016-Jul-21 19:31N 59°52' E 030°12'0 0.0
2016-Jul-21 18:31N 59°52' E 030°12'0 0.0
2016-Jul-21 17:31N 59°52' E 030°12'0 0.0
2016-Jul-21 16:31N 59°52' E 030°12'0 0.0
2016-Jul-21 15:31N 59°52' E 030°12'0 0.0
2016-Jul-21 14:31N 59°52' E 030°12'0 0.0
2016-Jul-21 13:31N 59°52' E 030°12'0 0.0
2016-Jul-21 12:31N 59°52' E 030°12'0 0.0
2016-Jul-21 11:31N 59°52' E 030°12'0 0.0
2016-Jul-21 10:31N 59°52' E 030°12'0 0.0
2016-Jul-21 09:31N 59°52' E 030°12'0 0.0
2016-Jul-21 08:31N 59°52' E 030°12'0 0.0
2016-Jul-21 07:31N 59°52' E 030°12'0 0.0
2016-Jul-21 06:31N 59°52' E 030°12'0 0.0
2016-Jul-21 05:31N 59°52' E 030°12'0 0.0
2016-Jul-21 04:28N 59°52' E 030°12'0 0.0
2016-Jul-21 03:31N 59°52' E 030°12'0 0.0
2016-Jul-21 02:31N 59°52' E 030°12'0 0.0
2016-Jul-21 01:31N 59°52' E 030°12'0 0.0
2016-Jul-21 00:31N 59°52' E 030°12'0 0.0
2016-Jul-20 23:31N 59°52' E 030°12'0 0.0
2016-Jul-20 22:28N 59°52' E 030°12'0 0.0
2016-Jul-20 21:31N 59°52' E 030°12'  

Dump ship's entire track history